Weather

Vsebine: Paragliding sitesCurrent conditionsCurrent conditions (amateur)Radar rainfal imageMeteo stationsPanoramic cameras


Current conditions (official report)

Show amateur stations

Click on a specific station to see its location

Location Weather conditions Temperature Wind Air pressure Last updated Geopedia
    °C direction speed (m/s) gusts (m/s) hPa    
Babno Polje -9   - - 2021-01-18 08:05:00
Babno Polje (756 m) 5   - - 2016-01-12 07:40:00
Bilje Nova Gorica -1   1 1 1024 2021-01-18 08:05:00
Bilje pri Novi Gorici -1   1 - 1024 2021-01-18 08:12:00
Blegoš -7   - - 2021-01-18 08:05:00
Bohinjska Češnjica -9   - - 2021-01-18 08:05:00
Boršt Gorenja vas -5   - 1 2021-01-18 08:03:00
Bovec -9   1 1 1027 2021-01-18 07:35:00
Breginj -7   - - 2021-01-18 08:05:00
Bukovski vrh -6   - - 2021-01-18 08:05:00
Celje -5   1 - 1025 2021-01-18 08:12:00
Cerkniško jezero -7   - - 2021-01-18 08:05:00
Črnomelj -8   1 - 1027 2021-01-18 08:12:00
Davča -9   - - 2021-01-18 08:05:00
Dobliče Črnomelj -9   1 2 1026 2021-01-18 08:03:00
Dolenje Ajdovščina 1   4 8 2021-01-18 07:34:00
Gačnik -8   1 1 2021-01-18 08:06:00
Godnje -2   3 5 2021-01-18 08:05:00
Gornji Grad -4   - - 2021-01-18 08:05:00
Hočko Pohorje -6   - - 2021-01-18 08:06:00
Hrastnik -3   - - 2021-01-18 08:03:00
Idrija -3   - - 2021-01-18 08:05:00
Ilirska Bistrica -7   - 1 2021-01-18 07:37:00
Iskrba -10   - 1 2021-01-18 08:05:00
Jeronim -6   - - 2021-01-18 08:05:00
Jeruzalem -5   - - 2021-01-18 08:05:00
Jezersko -8   - - 2021-01-18 08:03:00
Juršče   - - 2016-09-13 14:33:00
Kamniška Bistrica -5   - - 2021-01-18 08:05:00
Kanin -11   1 3 2021-01-18 08:05:00
Katarina nad Ljubljano -6   - - 2021-01-18 07:42:00
Kočevje -11   1 1 2021-01-18 08:05:00
Koper Kapitanija 2   1 2 1023 2021-01-18 07:35:00
Korensko sedlo -10   - - 2021-01-18 08:05:00
Kraj. park Goričko 1   2 5 2021-01-15 12:04:00
Krajinski park Goričko -6   3 5 2021-01-18 08:05:00
Kranj -4   - - 2021-01-18 08:05:00
Kredarica -12   7 15 2021-01-18 08:12:00
Krn -7   - - 2021-01-18 08:05:00
Krško -4   2 2 1026 2021-01-18 07:38:00
Krvavec -10   5 7 2021-01-18 08:04:00
Kubed -1   - - 2021-01-18 08:04:00
Kum -10   4 6 2021-01-18 08:04:00
Lendava -3   1 2 1024 2021-01-18 08:05:00
Let. E. Rusjana Maribor 2   1 3 1020 2021-01-15 12:04:00
Let. J. Pučnika Lj. 0   2 3 1011 2015-11-26 11:03:00
Let. J. Pučnika Ljubljana -1   1 2 1020 2021-01-15 12:03:00
Letališče Cerklje ob Krki -5   2 - 1026 2021-01-18 08:12:00
Letališče Edvarda Rusjana Maribor -8   2 - 1025 2021-01-18 08:12:00
Letališče Jožeta Pučnika Ljubljana -4   - - 1026 2021-01-18 08:12:00
Letališče Lesce -6   - - 1026 2021-01-18 08:12:00
Letališče Portorož 1   3 - 1023 2021-01-18 08:12:00
Lisca -9   7 - 2021-01-18 08:12:00
Lisca (943 m) 9   5 12 2016-03-29 14:02:00
Litija -3   - - 2021-01-18 08:04:00
Ljubljana -3   1 - 1026 2021-01-18 08:12:00
Logarska dolina -10   - - 2021-01-18 08:04:00
Logatec -5   - - 2021-01-18 07:33:00
Luka Koper 0   1 2 2021-01-18 07:35:00
Malkovec -5   2 3 1026 2021-01-18 07:36:00
Maribor -6   2 4 2021-01-18 08:03:00
Maribor - Tabor -3   1 2 2020-01-14 09:33:00
Marinča vas -7   - - 2021-01-18 08:05:00
Metlika -5   - - 2021-01-18 08:04:00
Mežica -8   - - 2021-01-18 08:04:00
Miklavž na Gorjancih -9   - - 2021-01-18 08:04:00
Murska Sobota -4   1 - 1024 2021-01-18 08:12:00
Nanos -5   6 9 2021-01-18 08:04:00
Nova Gorica 0   - - 2021-01-18 08:03:00
Nova vas - Bloke -11   - - 2021-01-18 08:04:00
Novo mesto -5   1 - 1026 2021-01-18 08:12:00
Osilnica -6   - - 2021-01-18 08:04:00
Otlica -3   1 3 2021-01-18 08:03:00
Otlica (965 m) 7   4 7 2016-03-31 08:24:00
Park Škocj. jame 3   3 7 1018 2021-01-15 12:02:00
Park Škocjanske jame -3   1 3 1025 2021-01-18 08:02:00
Pasja ravan -8   - 1 2021-01-18 08:04:00
Pavličevo sedlo -7   - - 2021-01-18 08:04:00
Piran - oceanografska boja 5   2 4 2021-01-18 07:35:00
Piran-ocean. boja 5   8 9 2021-01-15 11:08:00
Planina pod Golico -8   - - 2021-01-18 08:04:00
Podčetrtek -4   - 1 1024 2021-01-18 08:02:00
Podnanos 0   1 2 2021-01-18 08:04:00
Postojna -5   1 - 2021-01-18 08:12:00
Predel -8   - - 2021-01-18 08:03:00
Ptuj -5   1 2 2021-01-18 08:03:00
Ptuj - Terme -2   2 3 2017-01-19 14:35:00
Radegunda -7   - - 2021-01-18 08:05:00
Radenci 21   - - 1016 2020-09-22 11:34:00
Rateče -11   1 - 2021-01-18 08:12:00
Rateče (864 m) -4   - 1 2021-01-06 08:33:00
Ratitovec -8   5 7 2021-01-18 08:03:00
Ravne na Koroškem -8   1 2 2021-01-18 07:36:00
Rogaška Slatina -4   1 2 2021-01-18 08:03:00
Rogla -9   4 8 2021-01-18 08:03:00
Rogla (1492 m) -11   4 7 2016-01-18 10:32:00
Rudno polje -13   - 1 2021-01-18 08:03:00
Rudno polje (1347 m) -2   1 3 2015-10-20 07:36:00
Sevno -6   - - 2021-01-18 08:03:00
Slavnik -4   1 3 2021-01-18 08:03:00
Slovenj Gradec -7   1 - 2021-01-18 08:12:00
Slovenske Konjice -3   - - 2021-01-18 08:03:00
Sveti Trije Kralji na Pohorju -8   - - 2021-01-18 08:03:00
Sviščaki -6   1 2 2021-01-18 08:03:00
Šebreljski vrh -7   - - 2021-01-18 08:03:00
Šmartno pri Slovenj Gradcu -7   1 2 2021-01-18 08:03:00
Tatre -6   - - 2021-01-18 08:03:00
Tolmin - Volče -5   1 1 2021-01-18 08:03:00
Topol -6   - - 2021-01-18 08:03:00
Trbovlje -3   3 5 2021-01-18 07:37:00
Trebnje -5   - - 2021-01-18 08:03:00
Trije Kralji na Pohorju -5   - - 2021-01-15 12:03:00
Trojane - Limovce -6   5 7 1025 2021-01-18 08:03:00
Uršlja gora -11   2 5 2021-01-18 03:34:00
Vedrijan 0   - - 2021-01-18 08:03:00
Velenje -3   - - 2021-01-18 08:03:00
Velike Lašče -8   1 2 2021-01-18 08:03:00
Vogel -5   3 4 2021-01-18 08:03:00
Vojsko -9   - - 2021-01-18 07:42:00
Vrbanski plato -2   2 3 2016-12-07 11:23:00
Vrhnika -4   1 2 2021-01-18 08:03:00
Vršič -8   - - 2021-01-18 08:03:00
Zadlog -6   - - 2021-01-18 08:05:00
Zelenica -5   - - 2021-01-18 08:06:00
Zgornja Kapla -8   5 8 2021-01-18 08:03:00
Zgornja Radovna -10   - - 2021-01-18 08:03:00
Zgornja Sorica -9   - - 2021-01-18 08:03:00
Source: Slovenian Environmental Agency, meteo.si